createdAt,value
2018-03-15T00:01:44.096Z,13.02
2018-03-15T00:04:11.782Z,13.35
2018-03-15T00:06:39.504Z,12.52
2018-03-15T00:09:07.631Z,11.65
2018-03-15T00:11:36.132Z,12.75
2018-03-15T00:14:04.552Z,13.43
2018-03-15T00:16:32.080Z,12.88
2018-03-15T00:19:00.360Z,14.95
2018-03-15T00:21:27.882Z,13.45
2018-03-15T00:23:55.524Z,13.60
2018-03-15T00:26:23.090Z,12.98
2018-03-15T00:28:50.599Z,11.52
2018-03-15T00:31:18.890Z,13.80
2018-03-15T00:33:46.407Z,13.48
2018-03-15T00:36:13.937Z,15.35
2018-03-15T00:38:41.731Z,15.70
2018-03-15T00:41:09.235Z,15.82
2018-03-15T00:43:36.758Z,13.65
2018-03-15T00:46:04.267Z,12.95
2018-03-15T00:48:31.787Z,14.35
2018-03-15T00:50:59.293Z,17.02
2018-03-15T00:53:26.838Z,16.10
2018-03-15T00:55:54.346Z,14.32
2018-03-15T00:58:21.911Z,15.50
2018-03-15T01:00:49.562Z,15.45
2018-03-15T01:03:17.089Z,13.25
2018-03-15T01:05:44.706Z,14.98
2018-03-15T01:08:13.018Z,14.00
2018-03-15T01:10:41.283Z,14.15
2018-03-15T01:13:09.576Z,14.70
2018-03-15T01:15:37.175Z,17.05
2018-03-15T01:18:04.741Z,14.52
2018-03-15T01:20:32.315Z,22.27
2018-03-15T01:22:59.904Z,16.55
2018-03-15T01:25:28.174Z,14.55
2018-03-15T01:27:56.462Z,17.42
2018-03-15T01:30:24.778Z,18.08
2018-03-15T01:32:52.313Z,16.25
2018-03-15T01:35:20.079Z,17.80
2018-03-15T01:37:47.602Z,16.23
2018-03-15T01:40:15.116Z,18.67
2018-03-15T01:42:42.630Z,17.98
2018-03-15T01:45:10.160Z,15.50
2018-03-15T01:47:37.818Z,17.23
2018-03-15T01:50:05.344Z,18.62
2018-03-15T01:52:34.835Z,19.02
2018-03-15T01:55:03.160Z,17.65
2018-03-15T01:57:30.711Z,19.20
2018-03-15T02:02:52.107Z,18.80
2018-03-15T02:05:20.458Z,19.95
2018-03-15T02:07:47.971Z,19.58
2018-03-15T02:10:15.503Z,19.95
2018-03-15T02:12:43.867Z,19.15
2018-03-15T02:15:12.007Z,19.45
2018-03-15T02:17:39.507Z,18.95
2018-03-15T02:20:08.811Z,18.95
2018-03-15T02:22:37.118Z,20.30
2018-03-15T02:25:04.951Z,19.83
2018-03-15T02:27:32.628Z,20.40
2018-03-15T02:30:00.146Z,23.65
2018-03-15T02:32:27.647Z,23.73
2018-03-15T02:34:56.057Z,21.80
2018-03-15T02:37:23.567Z,24.17
2018-03-15T02:39:51.126Z,21.08
2018-03-15T02:42:18.659Z,19.90
2018-03-15T02:44:46.184Z,19.73
2018-03-15T02:47:13.772Z,18.67
2018-03-15T02:49:41.558Z,19.55
2018-03-15T02:52:09.066Z,20.60
2018-03-15T02:54:37.352Z,22.25
2018-03-15T02:57:04.867Z,19.35
2018-03-15T02:59:32.414Z,20.62
2018-03-15T03:01:59.926Z,18.80
2018-03-15T03:04:27.489Z,23.25
2018-03-15T03:06:55.935Z,21.92
2018-03-15T03:09:23.476Z,21.35
2018-03-15T03:11:50.977Z,23.30
2018-03-15T03:14:19.249Z,21.48
2018-03-15T03:16:47.603Z,21.98
2018-03-15T03:19:15.295Z,23.38
2018-03-15T03:21:43.593Z,21.33
2018-03-15T03:24:11.100Z,24.30
2018-03-15T03:26:38.639Z,23.77
2018-03-15T03:29:06.149Z,24.15
2018-03-15T03:31:34.461Z,23.38
2018-03-15T03:34:02.086Z,23.95
2018-03-15T03:36:30.812Z,23.55
2018-03-15T03:38:58.543Z,24.20
2018-03-15T03:41:26.834Z,23.62
2018-03-15T03:43:55.104Z,23.27
2018-03-15T03:46:23.464Z,27.20
2018-03-15T03:48:50.943Z,28.40
2018-03-15T03:51:19.239Z,27.25
2018-03-15T03:53:46.774Z,26.95
2018-03-15T03:56:14.315Z,27.37
2018-03-15T03:58:41.819Z,27.58
2018-03-15T04:01:09.378Z,27.35
2018-03-15T04:03:36.882Z,23.62
2018-03-15T04:06:04.655Z,21.30
2018-03-15T04:08:32.393Z,24.02
2018-03-15T04:10:59.892Z,21.60
2018-03-15T04:13:27.398Z,25.25
2018-03-15T04:15:54.926Z,26.20
2018-03-15T04:18:23.250Z,25.12
2018-03-15T04:20:50.750Z,24.42
2018-03-15T04:23:18.309Z,27.23
2018-03-15T04:25:46.587Z,24.77
2018-03-15T04:28:14.129Z,23.42
2018-03-15T04:30:41.770Z,25.80
2018-03-15T04:33:09.338Z,24.80
2018-03-15T04:35:36.886Z,22.90
2018-03-15T04:38:05.166Z,26.67
2018-03-15T04:40:32.722Z,24.20
2018-03-15T04:43:00.277Z,25.90
2018-03-15T04:45:27.831Z,25.73
2018-03-15T04:47:55.403Z,25.60
2018-03-15T04:50:22.947Z,27.55
2018-03-15T04:52:50.466Z,27.00
2018-03-15T04:55:17.972Z,26.17
2018-03-15T04:57:45.493Z,27.80
2018-03-15T05:00:13.830Z,26.33
2018-03-15T05:02:41.402Z,24.92
2018-03-15T05:05:08.911Z,26.37
2018-03-15T05:07:36.443Z,26.30
2018-03-15T05:10:03.975Z,31.73
2018-03-15T05:12:31.538Z,25.75
2018-03-15T05:14:59.086Z,24.00
2018-03-15T05:17:26.727Z,26.80
2018-03-15T05:19:54.231Z,23.85
2018-03-15T05:22:21.730Z,23.67
2018-03-15T05:24:50.154Z,25.98
2018-03-15T05:27:17.657Z,25.70
2018-03-15T05:29:45.182Z,24.92
2018-03-15T05:32:12.720Z,26.77
2018-03-15T05:34:40.238Z,25.08
2018-03-15T05:37:07.783Z,27.25
2018-03-15T05:39:35.498Z,25.10
2018-03-15T05:42:03.008Z,25.55
2018-03-15T05:44:30.528Z,24.37
2018-03-15T05:46:58.039Z,24.30
2018-03-15T05:49:26.338Z,25.30
2018-03-15T05:51:54.613Z,24.35
2018-03-15T05:54:22.906Z,22.42
2018-03-15T05:56:50.429Z,22.75
2018-03-15T05:59:17.947Z,21.62
2018-03-15T06:01:46.451Z,21.92
2018-03-15T06:04:13.970Z,20.70
2018-03-15T06:06:41.540Z,24.30
2018-03-15T06:09:09.162Z,22.58
2018-03-15T06:11:38.190Z,23.75
2018-03-15T06:14:05.702Z,20.88
2018-03-15T06:16:33.214Z,23.83
2018-03-15T06:19:00.731Z,21.10
2018-03-15T06:21:28.226Z,21.05
2018-03-15T06:23:55.807Z,23.12
2018-03-15T06:26:23.310Z,23.70
2018-03-15T06:28:50.850Z,22.05
2018-03-15T06:31:18.351Z,20.52
2018-03-15T06:33:46.643Z,21.62
2018-03-15T06:36:14.932Z,20.08
2018-03-15T06:38:42.455Z,22.98
2018-03-15T06:41:10.751Z,21.98
2018-03-15T06:43:39.020Z,21.00
2018-03-15T06:46:07.310Z,20.95
2018-03-15T06:48:35.583Z,19.80
2018-03-15T06:51:03.874Z,18.65
2018-03-15T06:53:31.488Z,17.33
2018-03-15T06:55:59.014Z,21.33
2018-03-15T06:58:26.540Z,18.05
2018-03-15T07:00:54.826Z,18.42
2018-03-15T07:03:22.339Z,18.85
2018-03-15T07:05:49.866Z,18.40
2018-03-15T07:08:17.371Z,19.65
2018-03-15T07:10:44.906Z,17.25
2018-03-15T07:13:12.410Z,19.77
2018-03-15T07:15:39.935Z,21.02
2018-03-15T07:18:07.449Z,19.23
2018-03-15T07:20:34.979Z,17.23
2018-03-15T07:23:02.500Z,22.08
2018-03-15T07:25:30.018Z,17.10
2018-03-15T07:27:57.574Z,20.58
2018-03-15T07:30:25.139Z,20.17
2018-03-15T07:32:52.659Z,18.98
2018-03-15T07:35:20.963Z,19.48
2018-03-15T07:37:48.487Z,17.67
2018-03-15T07:40:16.794Z,16.60
2018-03-15T07:42:44.312Z,17.02
2018-03-15T07:45:11.874Z,17.08
2018-03-15T07:47:39.388Z,17.77
2018-03-15T07:50:06.960Z,15.82
2018-03-15T07:52:34.500Z,16.08
2018-03-15T07:55:02.023Z,17.75
2018-03-15T07:57:30.328Z,17.30
2018-03-15T07:59:57.847Z,18.12
2018-03-15T08:02:26.174Z,16.75
2018-03-15T08:04:53.690Z,17.15
2018-03-15T08:07:22.002Z,18.73
2018-03-15T08:09:56.669Z,16.12
2018-03-15T08:12:25.049Z,18.90
2018-03-15T08:14:52.577Z,17.58
2018-03-15T08:17:20.103Z,16.40
2018-03-15T08:19:48.391Z,17.87
2018-03-15T08:22:16.703Z,19.58
2018-03-15T08:24:44.224Z,17.87
2018-03-15T08:27:12.520Z,17.05
2018-03-15T08:29:40.030Z,15.77
2018-03-15T08:32:07.572Z,17.33
2018-03-15T08:34:35.861Z,15.77
2018-03-15T08:37:03.386Z,15.13
2018-03-15T08:39:30.898Z,14.90
2018-03-15T08:41:58.433Z,15.50
2018-03-15T08:44:25.951Z,14.75
2018-03-15T08:46:53.486Z,13.25
2018-03-15T08:49:21.778Z,14.02
2018-03-15T08:51:50.073Z,12.90
2018-03-15T08:54:17.596Z,15.75
2018-03-15T08:56:45.138Z,13.65
2018-03-15T08:59:12.650Z,14.52
2018-03-15T09:01:40.930Z,15.88
2018-03-15T09:04:09.204Z,14.55
2018-03-15T09:06:36.734Z,12.70
2018-03-15T09:09:04.249Z,14.05
2018-03-15T09:11:31.772Z,13.13
2018-03-15T09:14:00.038Z,14.70
2018-03-15T09:16:28.325Z,13.65
2018-03-15T09:18:56.633Z,12.37
2018-03-15T09:21:24.143Z,12.65
2018-03-15T09:23:51.666Z,13.25
2018-03-15T09:26:19.164Z,12.68
2018-03-15T09:28:46.695Z,14.32
2018-03-15T09:31:14.202Z,12.90
2018-03-15T09:33:41.741Z,13.93
2018-03-15T09:36:09.255Z,13.25
2018-03-15T09:38:36.799Z,11.23
2018-03-15T09:41:04.314Z,12.32
2018-03-15T09:43:31.855Z,12.30
2018-03-15T09:45:59.372Z,14.32
2018-03-15T09:48:26.912Z,12.93
2018-03-15T09:50:55.208Z,12.57
2018-03-15T09:53:23.490Z,13.85
2018-03-15T09:55:51.011Z,12.88
2018-03-15T09:58:18.550Z,12.43
2018-03-15T10:00:46.069Z,12.55
2018-03-15T10:03:13.607Z,13.50
2018-03-15T10:05:41.936Z,13.55
2018-03-15T10:08:09.438Z,13.62
2018-03-15T10:10:37.739Z,13.93
2018-03-15T10:13:05.270Z,10.85
2018-03-15T10:15:32.792Z,12.57
2018-03-15T10:18:00.319Z,11.75
2018-03-15T10:20:28.598Z,12.65
2018-03-15T10:22:56.149Z,12.05
2018-03-15T10:25:26.394Z,12.10
2018-03-15T10:27:51.968Z,12.60
2018-03-15T10:30:19.503Z,11.48
2018-03-15T10:33:01.914Z,10.82
2018-03-15T10:35:29.458Z,11.80
2018-03-15T10:37:56.987Z,11.85
2018-03-15T10:40:24.538Z,10.65
2018-03-15T10:42:52.083Z,12.07
2018-03-15T10:45:19.615Z,11.52
2018-03-15T10:47:47.143Z,13.68
2018-03-15T10:50:14.690Z,11.60
2018-03-15T10:52:42.219Z,11.25
2018-03-15T10:55:09.755Z,12.18
2018-03-15T10:57:37.283Z,12.85
2018-03-15T11:00:04.838Z,11.38
2018-03-15T11:02:37.927Z,10.40
2018-03-15T11:05:05.482Z,11.25
2018-03-15T11:07:38.724Z,11.70
2018-03-15T11:10:15.763Z,11.77
2018-03-15T11:12:43.281Z,11.30
2018-03-15T11:15:10.826Z,12.80
2018-03-15T11:17:38.355Z,12.68
2018-03-15T11:20:05.913Z,11.35
2018-03-15T11:22:33.425Z,12.40
2018-03-15T11:25:00.963Z,13.27
2018-03-15T11:27:29.210Z,11.98
2018-03-15T11:29:56.738Z,12.80
2018-03-15T11:32:25.026Z,12.90
2018-03-15T11:34:52.562Z,11.95
2018-03-15T11:37:20.082Z,12.48
2018-03-15T11:39:47.633Z,11.15
2018-03-15T11:42:15.151Z,11.20
2018-03-15T11:44:43.436Z,11.75
2018-03-15T11:47:11.742Z,10.82
2018-03-15T11:49:39.275Z,13.23
2018-03-15T11:52:07.584Z,11.18
2018-03-15T11:54:35.108Z,11.38
2018-03-15T11:57:03.415Z,13.40
2018-03-15T11:59:30.932Z,11.95
2018-03-15T12:01:58.471Z,11.63
2018-03-15T12:04:26.007Z,12.05
2018-03-15T12:06:55.367Z,11.70
2018-03-15T12:09:23.675Z,11.73
2018-03-15T12:11:51.239Z,13.80
2018-03-15T12:14:18.783Z,12.20
2018-03-15T12:16:47.091Z,12.37
2018-03-15T12:19:14.595Z,13.23
2018-03-15T12:21:42.122Z,11.27
2018-03-15T12:24:09.643Z,11.65
2018-03-15T12:26:37.950Z,12.05
2018-03-15T12:29:05.490Z,12.80
2018-03-15T12:31:33.025Z,12.55
2018-03-15T12:34:00.587Z,12.15
2018-03-15T12:36:28.125Z,12.88
2018-03-15T12:38:55.627Z,12.18
2018-03-15T12:41:24.187Z,13.10
2018-03-15T12:43:51.711Z,11.75
2018-03-15T12:46:19.234Z,13.38
2018-03-15T12:48:46.743Z,13.95
2018-03-15T12:51:14.299Z,13.07
2018-03-15T12:53:41.843Z,13.27
2018-03-15T12:56:09.352Z,13.68
2018-03-15T12:58:36.935Z,14.38
2018-03-15T13:01:04.463Z,12.85
2018-03-15T13:03:32.102Z,13.32
2018-03-15T13:05:59.643Z,12.85
2018-03-15T13:08:27.183Z,14.00
2018-03-15T13:10:56.351Z,12.48
2018-03-15T13:13:24.654Z,14.40
2018-03-15T13:15:52.939Z,11.90
2018-03-15T13:18:20.495Z,11.68
2018-03-15T13:20:48.043Z,12.55
2018-03-15T13:23:16.362Z,13.32
2018-03-15T13:25:43.904Z,12.37
2018-03-15T13:28:11.680Z,12.15
2018-03-15T13:30:39.223Z,12.93
2018-03-15T13:33:07.507Z,11.60
2018-03-15T13:35:35.055Z,12.13
2018-03-15T13:38:03.352Z,12.00
2018-03-15T13:40:30.876Z,11.88
2018-03-15T13:42:59.175Z,11.65
2018-03-15T13:45:27.447Z,11.88
2018-03-15T13:47:55.004Z,12.85
2018-03-15T13:50:23.277Z,11.95
2018-03-15T13:52:51.566Z,12.75
2018-03-15T13:55:19.839Z,13.65
2018-03-15T13:57:48.150Z,11.75
2018-03-15T14:00:15.666Z,12.80
2018-03-15T14:02:43.191Z,12.93
2018-03-15T14:05:10.831Z,12.80
2018-03-15T14:07:38.365Z,13.40
2018-03-15T14:10:05.911Z,11.75
2018-03-15T14:12:34.213Z,12.73
2018-03-15T14:15:01.764Z,11.60
2018-03-15T14:17:30.065Z,13.23
2018-03-15T14:19:57.654Z,12.80
2018-03-15T14:22:25.198Z,12.48
2018-03-15T14:24:52.772Z,12.77
2018-03-15T14:27:20.321Z,12.82
2018-03-15T14:29:47.883Z,13.15
2018-03-15T14:32:15.465Z,15.45
2018-03-15T14:34:42.967Z,11.77
2018-03-15T14:37:10.499Z,12.23
2018-03-15T14:39:38.030Z,12.27
2018-03-15T14:42:05.547Z,13.25
2018-03-15T14:44:33.079Z,14.65
2018-03-15T14:47:01.374Z,12.18
2018-03-15T14:49:29.672Z,11.50
2018-03-15T14:51:57.979Z,12.55
2018-03-15T14:54:25.516Z,12.20
2018-03-15T14:56:53.034Z,11.60
2018-03-15T14:59:20.559Z,11.98
2018-03-15T15:01:48.090Z,12.30
2018-03-15T15:04:15.622Z,12.65
2018-03-15T15:06:43.147Z,12.23
2018-03-15T15:09:10.658Z,12.10
2018-03-15T15:11:38.963Z,13.50
2018-03-15T15:14:06.489Z,13.50
2018-03-15T15:16:34.859Z,12.80
2018-03-15T15:19:02.383Z,13.68
2018-03-15T15:21:30.522Z,12.55
2018-03-15T15:23:58.048Z,14.87
2018-03-15T15:26:25.587Z,12.20
2018-03-15T15:28:53.143Z,13.18
2018-03-15T15:31:20.697Z,12.88
2018-03-15T15:33:48.202Z,12.75
2018-03-15T15:36:16.490Z,13.95
2018-03-15T15:38:44.776Z,13.93
2018-03-15T15:41:12.298Z,12.40
2018-03-15T15:43:39.798Z,12.82
2018-03-15T15:46:07.318Z,12.98
2018-03-15T15:48:34.838Z,13.00
2018-03-15T15:51:02.362Z,13.20
2018-03-15T15:53:29.884Z,14.23
2018-03-15T15:55:57.445Z,11.50
2018-03-15T15:58:24.953Z,13.88
2018-03-15T16:00:53.262Z,13.23
2018-03-15T16:03:20.823Z,13.43
2018-03-15T16:05:48.379Z,13.73
2018-03-15T16:08:15.924Z,11.95
2018-03-15T16:10:43.470Z,13.05
2018-03-15T16:13:11.781Z,14.15
2018-03-15T16:15:39.385Z,13.45
2018-03-15T16:18:06.904Z,12.52
2018-03-15T16:20:34.468Z,12.15
2018-03-15T16:23:02.003Z,12.60
2018-03-15T16:25:29.509Z,13.77
2018-03-15T16:27:57.088Z,13.05
2018-03-15T16:30:24.671Z,13.20
2018-03-15T16:32:52.223Z,13.27
2018-03-15T16:35:19.779Z,12.90
2018-03-15T16:37:48.111Z,12.45
2018-03-15T16:40:15.666Z,13.38
2018-03-15T16:42:43.250Z,12.75
2018-03-15T16:45:10.806Z,13.60
2018-03-15T16:47:38.367Z,13.23
2018-03-15T16:50:05.948Z,11.70
2018-03-15T16:52:35.072Z,13.55
2018-03-15T16:55:02.659Z,12.85
2018-03-15T16:57:30.202Z,12.65
2018-03-15T16:59:57.800Z,12.63
2018-03-15T17:02:28.504Z,13.82
2018-03-15T17:04:56.127Z,13.77
2018-03-15T17:07:23.704Z,13.43
2018-03-15T17:09:51.259Z,13.55
2018-03-15T17:12:19.621Z,13.80
2018-03-15T17:14:47.988Z,11.82
2018-03-15T17:17:15.573Z,13.57
2018-03-15T17:19:43.888Z,15.65
2018-03-15T17:22:11.440Z,14.23
2018-03-15T17:24:39.785Z,15.07
2018-03-15T17:27:07.369Z,14.57
2018-03-15T17:29:34.939Z,14.50
2018-03-15T17:32:03.260Z,13.88
2018-03-15T17:34:30.840Z,14.40
2018-03-15T17:36:58.439Z,12.05
2018-03-15T17:39:26.078Z,14.55
2018-03-15T17:41:53.657Z,14.77
2018-03-15T17:44:21.267Z,13.05
2018-03-15T17:46:48.842Z,12.60
2018-03-15T17:49:17.198Z,12.30
2018-03-15T17:51:44.760Z,12.63
2018-03-15T17:54:12.346Z,12.68
2018-03-15T17:56:40.648Z,12.23
2018-03-15T17:59:09.335Z,12.00
2018-03-15T18:01:36.883Z,12.98
2018-03-15T18:04:05.321Z,11.30
2018-03-15T18:06:32.905Z,11.85
2018-03-15T18:09:00.500Z,11.30
2018-03-15T18:11:28.063Z,12.00
2018-03-15T18:13:55.672Z,12.93
2018-03-15T18:16:24.142Z,13.10
2018-03-15T18:18:51.674Z,12.63
2018-03-15T18:21:19.947Z,12.10
2018-03-15T18:23:48.237Z,13.95
2018-03-15T18:26:17.370Z,21.85
2018-03-15T18:28:44.895Z,21.10
2018-03-15T18:31:12.435Z,18.55
2018-03-15T18:33:40.983Z,18.98
2018-03-15T18:36:09.082Z,18.52
2018-03-15T18:38:38.122Z,15.65
2018-03-15T18:41:05.650Z,16.17
2018-03-15T18:43:33.954Z,13.27
2018-03-15T18:46:01.490Z,14.10
2018-03-15T18:48:29.766Z,13.73
2018-03-15T18:51:00.043Z,13.77
2018-03-15T18:53:27.546Z,11.90
2018-03-15T18:55:55.886Z,13.00
2018-03-15T18:58:23.383Z,14.10
2018-03-15T19:00:51.674Z,14.23
2018-03-15T19:03:19.942Z,13.75
2018-03-15T19:05:48.231Z,12.65
2018-03-15T19:08:16.500Z,13.15
2018-03-15T19:10:44.790Z,13.23
2018-03-15T19:13:13.077Z,12.32
2018-03-15T19:15:40.608Z,12.20
2018-03-15T19:18:08.898Z,12.32
2018-03-15T19:20:37.191Z,11.88
2018-03-15T19:23:04.702Z,13.85
2018-03-15T19:25:32.240Z,11.50
2018-03-15T19:27:59.746Z,13.68
2018-03-15T19:30:28.047Z,11.38
2018-03-15T19:32:55.554Z,11.35
2018-03-15T19:35:23.083Z,11.95
2018-03-15T19:37:50.630Z,12.65
2018-03-15T19:40:18.888Z,13.05
2018-03-15T19:42:46.406Z,12.80
2018-03-15T19:45:13.921Z,11.98
2018-03-15T19:47:41.427Z,12.55
2018-03-15T19:50:08.946Z,13.77
2018-03-15T19:52:36.457Z,12.50
2018-03-15T19:55:03.979Z,11.50
2018-03-15T19:57:31.500Z,13.70
2018-03-15T20:00:00.780Z,12.55
2018-03-15T20:02:29.111Z,12.15
2018-03-15T20:04:56.622Z,13.00
2018-03-15T20:07:24.157Z,12.60
2018-03-15T20:09:51.667Z,11.30
2018-03-15T20:12:19.973Z,10.98
2018-03-15T20:14:47.484Z,11.05
2018-03-15T20:17:15.019Z,12.07
2018-03-15T20:19:42.531Z,9.95
2018-03-15T20:22:10.979Z,10.23
2018-03-15T20:24:38.551Z,11.00
2018-03-15T20:27:06.082Z,9.30
2018-03-15T20:29:33.583Z,8.05
2018-03-15T20:32:01.867Z,8.85
2018-03-15T20:34:29.404Z,8.20
2018-03-15T20:36:56.923Z,9.18
2018-03-15T20:39:30.053Z,6.60
2018-03-15T20:41:57.652Z,7.72
2018-03-15T20:44:25.155Z,6.78
2018-03-15T20:46:58.325Z,7.20
2018-03-15T20:49:26.566Z,6.62
2018-03-15T20:51:54.850Z,7.95
2018-03-15T20:54:22.374Z,6.90
2018-03-15T20:56:49.891Z,6.47
2018-03-15T20:59:17.385Z,7.75
2018-03-15T21:01:44.902Z,6.82
2018-03-15T21:04:12.590Z,7.10
2018-03-15T21:06:40.118Z,7.35
2018-03-15T21:09:08.382Z,7.95
2018-03-15T21:11:36.666Z,7.37
2018-03-15T21:14:04.938Z,9.05
2018-03-15T21:16:33.239Z,7.15
2018-03-15T21:19:00.790Z,7.85
2018-03-15T21:21:29.083Z,8.07
2018-03-15T21:23:56.589Z,8.57
2018-03-15T21:26:24.110Z,8.48
2018-03-15T21:28:51.689Z,8.48
2018-03-15T21:31:19.224Z,8.55
2018-03-15T21:33:46.721Z,7.80
2018-03-15T21:36:14.268Z,8.40
2018-03-15T21:38:41.758Z,8.10
2018-03-15T21:41:09.266Z,8.07
2018-03-15T21:43:36.789Z,9.02
2018-03-15T21:46:04.312Z,8.27
2018-03-15T21:48:31.836Z,8.73
2018-03-15T21:50:59.335Z,9.13
2018-03-15T21:53:26.859Z,9.60
2018-03-15T21:55:54.370Z,8.77
2018-03-15T21:58:22.674Z,8.68
2018-03-15T22:00:50.950Z,8.93
2018-03-15T22:03:19.577Z,8.75
2018-03-15T22:05:47.112Z,8.93
2018-03-15T22:08:14.797Z,8.73
2018-03-15T22:10:42.353Z,10.00
2018-03-15T22:13:09.925Z,8.85
2018-03-15T22:15:37.477Z,7.85
2018-03-15T22:18:05.029Z,8.13
2018-03-15T22:20:32.569Z,8.60
2018-03-15T22:23:00.896Z,9.02
2018-03-15T22:25:28.440Z,9.63
2018-03-15T22:27:56.768Z,8.75
2018-03-15T22:30:25.106Z,8.32
2018-03-15T22:32:52.646Z,7.97
2018-03-15T22:35:20.240Z,8.45
2018-03-15T22:37:48.697Z,8.18
2018-03-15T22:40:16.260Z,8.25
2018-03-15T22:42:43.888Z,9.02
2018-03-15T22:45:12.250Z,9.07
2018-03-15T22:47:39.792Z,8.30
2018-03-15T22:50:07.396Z,8.77
2018-03-15T22:52:34.941Z,8.85
2018-03-15T22:55:03.345Z,9.63
2018-03-15T22:57:31.676Z,8.80
2018-03-15T22:59:59.224Z,9.65
2018-03-15T23:02:26.795Z,8.90
2018-03-15T23:04:54.389Z,9.02
2018-03-15T23:07:21.976Z,8.70
2018-03-15T23:09:49.543Z,8.68
2018-03-15T23:12:17.084Z,8.02
2018-03-15T23:14:44.690Z,7.70
2018-03-15T23:17:12.250Z,8.23
2018-03-15T23:19:39.810Z,7.62
2018-03-15T23:22:07.351Z,7.18
2018-03-15T23:24:34.920Z,7.03
2018-03-15T23:27:02.467Z,6.00
2018-03-15T23:29:30.056Z,6.35
2018-03-15T23:31:57.600Z,6.65
2018-03-15T23:34:25.168Z,4.87
2018-03-15T23:36:52.703Z,4.37
2018-03-15T23:39:20.249Z,4.15
2018-03-15T23:41:47.801Z,3.90
2018-03-15T23:44:16.113Z,3.92
2018-03-15T23:46:43.675Z,3.70
2018-03-15T23:49:11.216Z,3.20
2018-03-15T23:51:38.778Z,3.45
2018-03-15T23:54:06.320Z,2.87
2018-03-15T23:56:33.870Z,3.62
2018-03-15T23:59:02.192Z,3.00
